createdAt,value
2023-02-19T00:00:05.764Z,101096.40
2023-02-19T00:02:53.927Z,101086.20
2023-02-19T00:05:21.966Z,101089.80
2023-02-19T00:07:50.173Z,101099.20
2023-02-19T00:10:18.889Z,101096.60
2023-02-19T00:12:46.706Z,101102.60
2023-02-19T00:15:15.010Z,101102.80
2023-02-19T00:17:42.882Z,101098.40
2023-02-19T00:20:11.291Z,101104.80
2023-02-19T00:22:41.433Z,101100.80
2023-02-19T00:25:15.376Z,101102.80
2023-02-19T00:27:43.542Z,101107.60
2023-02-19T00:30:14.241Z,101108.80
2023-02-19T00:32:50.865Z,101114.40
2023-02-19T00:35:18.814Z,101116.00
2023-02-19T00:37:46.574Z,101119.40
2023-02-19T00:40:15.193Z,101125.60
2023-02-19T00:42:43.381Z,101124.60
2023-02-19T00:45:11.395Z,101127.40
2023-02-19T00:47:42.424Z,101123.80
2023-02-19T00:50:12.729Z,101123.60
2023-02-19T00:52:42.125Z,101127.80
2023-02-19T00:55:10.978Z,101131.40
2023-02-19T00:57:39.357Z,101133.00
2023-02-19T01:00:10.161Z,101132.80
2023-02-19T01:02:38.286Z,101134.00
2023-02-19T01:05:08.815Z,101131.40
2023-02-19T01:07:38.343Z,101135.40
2023-02-19T01:10:08.814Z,101137.00
2023-02-19T01:12:36.580Z,101135.80
2023-02-19T01:15:04.749Z,101137.80
2023-02-19T01:17:32.722Z,101131.00
2023-02-19T01:20:00.454Z,101132.40
2023-02-19T01:22:28.956Z,101131.60
2023-02-19T01:24:57.221Z,101133.00
2023-02-19T01:27:24.971Z,101133.60
2023-02-19T01:29:53.281Z,101123.60
2023-02-19T01:32:22.775Z,101127.00
2023-02-19T01:34:50.628Z,101129.40
2023-02-19T01:37:18.401Z,101127.60
2023-02-19T01:39:47.883Z,101129.40
2023-02-19T01:42:18.658Z,101130.40
2023-02-19T01:44:47.329Z,101135.40
2023-02-19T01:47:19.736Z,101132.60
2023-02-19T01:49:55.877Z,101134.00
2023-02-19T01:52:38.133Z,101129.20
2023-02-19T01:55:12.524Z,101128.00
2023-02-19T01:57:46.814Z,101124.80
2023-02-19T02:00:18.335Z,101128.80
2023-02-19T02:02:53.016Z,101129.60
2023-02-19T02:06:12.219Z,101126.60
2023-02-19T02:08:59.826Z,101130.40
2023-02-19T02:11:28.538Z,101131.60
2023-02-19T02:14:00.735Z,101133.60
2023-02-19T02:16:56.085Z,101135.80
2023-02-19T02:19:49.662Z,101134.60
2023-02-19T02:22:47.475Z,101136.20
2023-02-19T02:26:02.222Z,101138.80
2023-02-19T02:29:16.399Z,101133.40
2023-02-19T02:31:59.399Z,101134.40
2023-02-19T02:34:54.456Z,101141.80
2023-02-19T02:37:28.208Z,101154.00
2023-02-19T02:40:00.198Z,101157.80
2023-02-19T02:42:27.971Z,101160.80
2023-02-19T02:45:37.726Z,101159.60
2023-02-19T02:48:40.348Z,101159.00
2023-02-19T02:51:31.276Z,101159.60
2023-02-19T02:54:38.637Z,101169.40
2023-02-19T02:57:14.929Z,101172.40
2023-02-19T02:59:45.873Z,101178.20
2023-02-19T03:02:25.262Z,101180.80
2023-02-19T03:05:39.003Z,101185.20
2023-02-19T03:08:17.901Z,101181.80
2023-02-19T03:11:23.990Z,101183.80
2023-02-19T03:14:28.276Z,101185.40
2023-02-19T03:17:34.534Z,101185.00
2023-02-19T03:20:11.247Z,101177.20
2023-02-19T03:22:42.954Z,101179.00
2023-02-19T03:25:37.902Z,101177.00
2023-02-19T03:28:16.144Z,101175.00
2023-02-19T03:30:53.807Z,101174.60
2023-02-19T03:33:27.199Z,101183.20
2023-02-19T03:36:08.413Z,101187.40
2023-02-19T03:38:59.877Z,101187.60
2023-02-19T03:41:43.770Z,101185.60
2023-02-19T03:44:33.836Z,101188.40
2023-02-19T03:47:20.904Z,101186.00
2023-02-19T03:50:19.832Z,101183.80
2023-02-19T03:52:58.961Z,101190.00
2023-02-19T03:56:02.797Z,101199.40
2023-02-19T03:58:54.998Z,101199.60
2023-02-19T04:01:38.097Z,101210.00
2023-02-19T04:04:47.894Z,101213.80
2023-02-19T04:07:16.049Z,101211.20
2023-02-19T04:09:49.922Z,101218.00
2023-02-19T04:12:21.043Z,101221.20
2023-02-19T04:15:07.807Z,101234.20
2023-02-19T04:17:41.921Z,101238.00
2023-02-19T04:20:13.437Z,101245.40
2023-02-19T04:22:45.119Z,101246.20
2023-02-19T04:25:13.074Z,101250.40
2023-02-19T04:27:45.584Z,101257.00
2023-02-19T04:30:15.932Z,101255.00
2023-02-19T04:32:43.641Z,101252.40
2023-02-19T04:35:12.768Z,101256.80
2023-02-19T04:37:42.074Z,101254.20
2023-02-19T04:40:12.383Z,101242.80
2023-02-19T04:42:40.162Z,101235.00
2023-02-19T04:45:08.473Z,101243.40
2023-02-19T04:47:36.197Z,101247.40
2023-02-19T04:50:04.464Z,101257.20
2023-02-19T04:52:33.546Z,101257.00
2023-02-19T04:55:01.358Z,101257.00
2023-02-19T04:57:29.141Z,101257.00
2023-02-19T04:59:57.500Z,101273.40
2023-02-19T05:02:25.553Z,101270.20
2023-02-19T05:04:57.134Z,101264.20
2023-02-19T05:07:24.896Z,101259.80
2023-02-19T05:09:53.571Z,101260.60
2023-02-19T05:12:21.453Z,101268.40
2023-02-19T05:14:49.706Z,101272.40
2023-02-19T05:17:17.960Z,101276.20
2023-02-19T05:19:47.745Z,101283.80
2023-02-19T05:22:15.508Z,101274.80
2023-02-19T05:24:43.938Z,101272.60
2023-02-19T05:27:11.636Z,101278.00
2023-02-19T05:29:39.798Z,101276.20
2023-02-19T05:32:08.466Z,101281.00
2023-02-19T05:34:36.436Z,101274.60
2023-02-19T05:37:06.708Z,101281.00
2023-02-19T05:39:34.748Z,101284.20
2023-02-19T05:42:02.974Z,101278.00
2023-02-19T05:44:30.962Z,101271.80
2023-02-19T05:46:58.668Z,101280.40
2023-02-19T05:49:29.399Z,101278.00
2023-02-19T05:51:57.399Z,101273.00
2023-02-19T05:54:25.540Z,101280.00
2023-02-19T05:56:53.375Z,101275.60
2023-02-19T05:59:27.874Z,101279.60
2023-02-19T06:01:56.541Z,101288.40
2023-02-19T06:04:25.310Z,101295.80
2023-02-19T06:06:54.836Z,101303.20
2023-02-19T06:09:23.699Z,101308.40
2023-02-19T06:11:51.445Z,101305.40
2023-02-19T06:14:19.674Z,101307.00
2023-02-19T06:16:47.540Z,101317.00
2023-02-19T06:19:16.309Z,101323.20
2023-02-19T06:21:44.020Z,101321.40
2023-02-19T06:24:11.884Z,101321.20
2023-02-19T06:26:39.670Z,101321.00
2023-02-19T06:29:07.616Z,101330.60
2023-02-19T06:31:35.503Z,101328.00
2023-02-19T06:34:06.671Z,101319.80
2023-02-19T06:36:35.456Z,101322.60
2023-02-19T06:39:06.124Z,101320.20
2023-02-19T06:41:34.236Z,101317.60
2023-02-19T06:44:02.590Z,101314.60
2023-02-19T06:46:30.469Z,101314.20
2023-02-19T06:49:00.118Z,101313.60
2023-02-19T06:51:29.736Z,101313.00
2023-02-19T06:54:02.257Z,101317.60
2023-02-19T06:56:46.080Z,101309.60
2023-02-19T06:59:19.664Z,101311.00
2023-02-19T07:01:47.544Z,101307.00
2023-02-19T07:04:18.085Z,101322.20
2023-02-19T07:06:46.105Z,101321.20
2023-02-19T07:09:14.733Z,101312.00
2023-02-19T07:11:44.916Z,101318.00
2023-02-19T07:14:17.173Z,101316.20
2023-02-19T07:16:47.359Z,101300.40
2023-02-19T07:19:16.677Z,101297.20
2023-02-19T07:21:44.435Z,101301.00
2023-02-19T07:24:12.643Z,101304.60
2023-02-19T07:26:43.854Z,101293.20
2023-02-19T07:29:11.632Z,101294.20
2023-02-19T07:31:39.586Z,101297.60
2023-02-19T07:34:07.874Z,101292.40
2023-02-19T07:36:35.922Z,101286.80
2023-02-19T07:39:05.359Z,101295.40
2023-02-19T07:41:33.250Z,101295.80
2023-02-19T07:44:01.674Z,101297.60
2023-02-19T07:46:31.059Z,101304.00
2023-02-19T07:49:08.215Z,101306.20
2023-02-19T07:51:39.888Z,101302.00
2023-02-19T07:54:10.210Z,101299.00
2023-02-19T07:56:38.826Z,101299.80
2023-02-19T07:59:06.525Z,101289.80
2023-02-19T08:01:54.577Z,101283.80
2023-02-19T08:04:22.823Z,101299.80
2023-02-19T08:06:52.826Z,101307.00
2023-02-19T08:09:22.758Z,101309.80
2023-02-19T08:12:11.704Z,101322.80
2023-02-19T08:14:39.480Z,101320.60
2023-02-19T08:17:07.374Z,101316.20
2023-02-19T08:19:35.144Z,101314.40
2023-02-19T08:22:05.926Z,101318.00
2023-02-19T08:24:35.254Z,101320.40
2023-02-19T08:27:02.942Z,101324.80
2023-02-19T08:29:31.728Z,101331.40
2023-02-19T08:32:03.317Z,101338.20
2023-02-19T08:34:31.906Z,101345.00
2023-02-19T08:37:02.322Z,101345.20
2023-02-19T08:39:30.010Z,101339.20
2023-02-19T08:41:58.995Z,101349.80
2023-02-19T08:44:27.914Z,101352.60
2023-02-19T08:46:55.605Z,101345.60
2023-02-19T08:49:27.650Z,101346.40
2023-02-19T08:51:55.377Z,101362.40
2023-02-19T08:54:23.054Z,101364.60
2023-02-19T08:56:51.148Z,101355.20
2023-02-19T08:59:22.040Z,101361.60
2023-02-19T09:01:50.362Z,101370.40
2023-02-19T09:04:18.769Z,101365.80
2023-02-19T09:06:46.481Z,101366.00
2023-02-19T09:09:16.865Z,101365.00
2023-02-19T09:11:44.735Z,101356.60
2023-02-19T09:14:12.487Z,101350.40
2023-02-19T09:16:42.608Z,101354.20
2023-02-19T09:19:10.614Z,101358.60
2023-02-19T09:21:38.811Z,101360.00
2023-02-19T09:24:09.848Z,101368.00
2023-02-19T09:26:38.658Z,101359.60
2023-02-19T09:29:06.694Z,101359.60
2023-02-19T09:31:35.794Z,101354.20
2023-02-19T09:34:06.229Z,101355.40
2023-02-19T09:36:34.430Z,101363.40
2023-02-19T09:39:02.435Z,101361.00
2023-02-19T09:41:36.094Z,101368.60
2023-02-19T09:44:09.840Z,101364.40
2023-02-19T09:46:48.730Z,101356.80
2023-02-19T09:49:41.525Z,101358.60
2023-02-19T09:52:19.870Z,101348.80
2023-02-19T09:54:48.182Z,101351.00
2023-02-19T09:57:23.345Z,101348.20
2023-02-19T10:00:11.241Z,101338.00
2023-02-19T10:02:40.107Z,101339.80
2023-02-19T10:05:14.647Z,101344.80
2023-02-19T10:07:51.133Z,101346.20
2023-02-19T10:10:33.473Z,101341.60
2023-02-19T10:13:33.234Z,101346.40
2023-02-19T10:16:10.057Z,101362.40
2023-02-19T10:18:43.486Z,101371.20
2023-02-19T10:21:31.929Z,101362.60
2023-02-19T10:24:04.846Z,101374.20
2023-02-19T10:26:38.038Z,101379.00
2023-02-19T10:29:07.239Z,101374.20
2023-02-19T10:31:35.211Z,101381.60
2023-02-19T10:34:03.134Z,101385.00
2023-02-19T10:36:43.550Z,101381.40
2023-02-19T10:39:50.685Z,101374.40
2023-02-19T10:42:23.397Z,101372.40
2023-02-19T10:45:02.367Z,101363.40
2023-02-19T10:47:33.520Z,101355.60
2023-02-19T10:50:04.693Z,101348.80
2023-02-19T10:52:36.923Z,101358.00
2023-02-19T10:55:29.242Z,101358.80
2023-02-19T10:57:58.377Z,101360.60
2023-02-19T11:00:30.698Z,101359.80
2023-02-19T11:03:23.911Z,101366.60
2023-02-19T11:06:02.068Z,101357.40
2023-02-19T11:08:53.834Z,101357.00
2023-02-19T11:11:33.800Z,101345.80
2023-02-19T11:14:34.940Z,101341.80
2023-02-19T11:17:09.038Z,101332.20
2023-02-19T11:19:44.804Z,101329.80
2023-02-19T11:22:36.104Z,101314.00
2023-02-19T11:25:22.590Z,101324.20
2023-02-19T11:28:25.807Z,101327.80
2023-02-19T11:30:54.101Z,101330.20
2023-02-19T11:33:28.095Z,101327.00
2023-02-19T11:37:07.137Z,101322.00
2023-02-19T11:39:37.970Z,101324.80
2023-02-19T11:42:39.366Z,101329.80
2023-02-19T11:45:26.089Z,101325.00
2023-02-19T11:48:35.412Z,101325.80
2023-02-19T11:51:31.606Z,101330.40
2023-02-19T11:54:32.170Z,101324.60
2023-02-19T11:57:51.466Z,101325.00
2023-02-19T12:00:41.283Z,101333.20
2023-02-19T12:03:34.737Z,101334.40
2023-02-19T12:06:27.583Z,101340.00
2023-02-19T12:09:10.606Z,101344.60
2023-02-19T12:11:59.805Z,101346.20
2023-02-19T12:15:00.770Z,101337.80
2023-02-19T12:18:11.439Z,101334.20
2023-02-19T12:21:16.028Z,101327.80
2023-02-19T12:23:58.215Z,101328.60
2023-02-19T12:26:35.704Z,101331.00
2023-02-19T12:29:34.550Z,101322.80
2023-02-19T12:32:50.137Z,101301.20
2023-02-19T12:36:05.793Z,101300.60
2023-02-19T12:39:05.526Z,101312.20
2023-02-19T12:42:16.423Z,101314.40
2023-02-19T12:44:52.257Z,101315.80
2023-02-19T12:47:28.851Z,101321.00
2023-02-19T12:50:13.774Z,101313.40
2023-02-19T12:52:55.284Z,101311.80
2023-02-19T12:55:36.576Z,101307.60
2023-02-19T12:58:12.754Z,101297.40
2023-02-19T13:00:56.806Z,101289.80
2023-02-19T13:03:41.628Z,101289.00
2023-02-19T13:06:50.234Z,101297.00
2023-02-19T13:09:37.727Z,101296.00
2023-02-19T13:12:32.071Z,101284.60
2023-02-19T13:15:04.016Z,101281.40
2023-02-19T13:17:45.392Z,101277.20
2023-02-19T13:20:27.693Z,101281.40
2023-02-19T13:23:38.334Z,101263.60
2023-02-19T13:27:00.518Z,101257.20
2023-02-19T13:29:48.963Z,101243.40
2023-02-19T13:32:56.588Z,101245.20
2023-02-19T13:36:10.571Z,101241.00
2023-02-19T13:38:46.147Z,101239.40
2023-02-19T13:41:40.486Z,101238.60
2023-02-19T13:44:20.458Z,101241.60
2023-02-19T13:46:53.335Z,101249.80
2023-02-19T13:49:33.028Z,101251.00
2023-02-19T13:52:29.728Z,101254.00
2023-02-19T13:55:42.526Z,101250.40
2023-02-19T13:58:33.568Z,101245.80
2023-02-19T14:01:12.294Z,101247.00
2023-02-19T14:04:06.813Z,101272.00
2023-02-19T14:07:02.786Z,101270.20
2023-02-19T14:09:45.897Z,101270.60
2023-02-19T14:12:15.609Z,101279.60
2023-02-19T14:14:53.141Z,101273.60
2023-02-19T14:17:34.978Z,101269.00
2023-02-19T14:20:08.815Z,101275.00
2023-02-19T14:22:47.673Z,101269.60
2023-02-19T14:25:29.613Z,101255.00
2023-02-19T14:28:12.705Z,101257.00
2023-02-19T14:30:57.670Z,101252.60
2023-02-19T14:33:34.310Z,101251.40
2023-02-19T14:36:17.307Z,101242.40
2023-02-19T14:39:00.255Z,101246.40
2023-02-19T14:41:32.624Z,101240.20
2023-02-19T14:44:03.513Z,101244.40
2023-02-19T14:46:41.586Z,101237.00
2023-02-19T14:49:27.684Z,101235.20
2023-02-19T14:52:08.925Z,101225.60
2023-02-19T14:54:54.036Z,101228.60
2023-02-19T14:57:39.095Z,101226.20
2023-02-19T15:00:24.093Z,101230.80
2023-02-19T15:02:59.080Z,101228.80
2023-02-19T15:05:37.083Z,101227.80
2023-02-19T15:08:14.440Z,101235.40
2023-02-19T15:10:46.817Z,101239.40
2023-02-19T15:13:28.009Z,101235.40
2023-02-19T15:15:58.465Z,101229.00
2023-02-19T15:18:30.464Z,101220.60
2023-02-19T15:21:05.840Z,101213.00
2023-02-19T15:23:36.281Z,101219.60
2023-02-19T15:26:05.085Z,101214.60
2023-02-19T15:28:34.572Z,101213.20
2023-02-19T15:31:03.380Z,101217.40
2023-02-19T15:33:32.542Z,101219.40
2023-02-19T15:36:08.783Z,101210.40
2023-02-19T15:38:38.218Z,101206.20
2023-02-19T15:41:07.321Z,101205.80
2023-02-19T15:44:25.014Z,101197.00
2023-02-19T15:46:57.021Z,101193.80
2023-02-19T15:49:43.184Z,101184.60
2023-02-19T15:52:43.889Z,101185.00
2023-02-19T15:55:38.643Z,101180.80
2023-02-19T15:58:38.243Z,101177.20
2023-02-19T16:01:31.151Z,101175.00
2023-02-19T16:04:01.597Z,101174.40
2023-02-19T16:06:31.357Z,101165.20
2023-02-19T16:09:21.796Z,101164.60
2023-02-19T16:11:56.834Z,101154.20
2023-02-19T16:14:37.720Z,101146.80
2023-02-19T16:17:07.736Z,101144.80
2023-02-19T16:20:03.377Z,101142.60
2023-02-19T16:22:42.766Z,101140.60
2023-02-19T16:25:28.410Z,101130.00
2023-02-19T16:28:00.355Z,101129.60
2023-02-19T16:30:34.163Z,101133.40
2023-02-19T16:33:21.723Z,101135.60
2023-02-19T16:35:53.726Z,101133.00
2023-02-19T16:38:22.936Z,101133.00
2023-02-19T16:40:54.713Z,101125.60
2023-02-19T16:43:42.363Z,101120.40
2023-02-19T16:46:13.001Z,101118.40
2023-02-19T16:48:41.845Z,101118.20
2023-02-19T16:51:26.640Z,101118.40
2023-02-19T16:53:54.407Z,101119.60
2023-02-19T16:56:23.736Z,101106.40
2023-02-19T16:58:54.586Z,101099.00
2023-02-19T17:01:24.413Z,101102.40
2023-02-19T17:04:02.772Z,101098.00
2023-02-19T17:06:34.715Z,101091.00
2023-02-19T17:09:02.680Z,101089.60
2023-02-19T17:11:31.641Z,101075.80
2023-02-19T17:13:59.424Z,101082.20
2023-02-19T17:16:34.481Z,101076.00
2023-02-19T17:19:05.829Z,101074.40
2023-02-19T17:21:34.714Z,101071.00
2023-02-19T17:24:03.641Z,101061.40
2023-02-19T17:26:34.547Z,101055.00
2023-02-19T17:29:07.059Z,101055.60
2023-02-19T17:31:35.032Z,101045.20
2023-02-19T17:34:02.793Z,101043.60
2023-02-19T17:36:32.589Z,101046.20
2023-02-19T17:39:04.733Z,101047.20
2023-02-19T17:41:34.954Z,101048.40
2023-02-19T17:44:08.801Z,101049.80
2023-02-19T17:46:38.697Z,101050.00
2023-02-19T17:49:12.427Z,101059.80
2023-02-19T17:51:41.000Z,101059.80
2023-02-19T17:54:09.415Z,101062.20
2023-02-19T17:56:37.400Z,101063.60
2023-02-19T17:59:05.547Z,101061.60
2023-02-19T18:01:33.413Z,101054.40
2023-02-19T18:04:06.689Z,101052.00
2023-02-19T18:06:36.157Z,101050.20
2023-02-19T18:09:04.041Z,101052.80
2023-02-19T18:11:32.118Z,101043.40
2023-02-19T18:14:00.548Z,101029.40
2023-02-19T18:16:28.814Z,101020.20
2023-02-19T18:19:01.803Z,101014.80
2023-02-19T18:21:29.521Z,101015.00
2023-02-19T18:23:57.428Z,101018.20
2023-02-19T18:26:25.866Z,101019.80
2023-02-19T18:28:56.083Z,101008.20
2023-02-19T18:31:24.333Z,101004.80
2023-02-19T18:33:52.830Z,100996.20
2023-02-19T18:36:31.017Z,100994.60
2023-02-19T18:38:59.192Z,100980.40
2023-02-19T18:41:28.577Z,100971.00
2023-02-19T18:43:56.281Z,100973.00
2023-02-19T18:46:26.912Z,100973.20
2023-02-19T18:48:56.449Z,100972.40
2023-02-19T18:51:28.668Z,100962.40
2023-02-19T18:53:58.793Z,100964.00
2023-02-19T18:56:29.612Z,100970.40
2023-02-19T18:59:04.414Z,100959.20
2023-02-19T19:01:33.032Z,100953.00
2023-02-19T19:04:03.099Z,100951.00
2023-02-19T19:06:31.642Z,100944.60
2023-02-19T19:08:59.547Z,100937.80
2023-02-19T19:11:35.571Z,100925.60
2023-02-19T19:14:04.150Z,100925.40
2023-02-19T19:16:31.872Z,100931.60
2023-02-19T19:19:00.649Z,100935.20
2023-02-19T19:21:29.002Z,100934.00
2023-02-19T19:23:57.230Z,100923.80
2023-02-19T19:26:26.813Z,100921.60
2023-02-19T19:28:55.124Z,100922.60
2023-02-19T19:31:24.872Z,100913.80
2023-02-19T19:33:53.261Z,100904.40
2023-02-19T19:36:25.877Z,100904.00
2023-02-19T19:38:54.751Z,100901.20
2023-02-19T19:41:22.642Z,100901.80
2023-02-19T19:43:51.202Z,100907.80
2023-02-19T19:46:23.377Z,100902.60
2023-02-19T19:48:53.089Z,100896.00
2023-02-19T19:51:21.328Z,100884.00
2023-02-19T19:53:55.459Z,100880.00
2023-02-19T19:56:24.270Z,100888.60
2023-02-19T19:58:56.821Z,100890.00
2023-02-19T20:01:26.093Z,100884.40
2023-02-19T20:03:54.101Z,100871.60
2023-02-19T20:06:31.210Z,100872.60
2023-02-19T20:09:00.163Z,100876.60
2023-02-19T20:11:28.621Z,100874.40
2023-02-19T20:13:59.469Z,100867.80
2023-02-19T20:16:29.265Z,100864.80
2023-02-19T20:19:01.862Z,100856.20
2023-02-19T20:21:33.073Z,100840.00
2023-02-19T20:24:02.137Z,100840.20
2023-02-19T20:26:31.938Z,100825.60
2023-02-19T20:29:00.884Z,100805.00
2023-02-19T20:31:31.887Z,100802.00
2023-02-19T20:34:02.135Z,100802.00
2023-02-19T20:36:32.120Z,100800.00
2023-02-19T20:39:04.238Z,100795.20
2023-02-19T20:41:33.994Z,100799.20
2023-02-19T20:44:06.792Z,100788.40
2023-02-19T20:46:47.250Z,100783.60
2023-02-19T20:49:23.808Z,100781.20
2023-02-19T20:51:59.037Z,100781.80
2023-02-19T20:54:34.073Z,100768.80
2023-02-19T20:57:06.728Z,100772.20
2023-02-19T20:59:35.612Z,100770.60
2023-02-19T21:02:29.473Z,100764.60
2023-02-19T21:05:02.119Z,100752.20
2023-02-19T21:07:31.027Z,100746.80
2023-02-19T21:10:00.739Z,100739.80
2023-02-19T21:12:33.740Z,100737.20
2023-02-19T21:15:02.471Z,100736.00
2023-02-19T21:17:33.753Z,100737.00
2023-02-19T21:20:04.988Z,100725.80
2023-02-19T21:22:33.453Z,100724.00
2023-02-19T21:25:02.886Z,100724.20
2023-02-19T21:27:30.652Z,100713.40
2023-02-19T21:29:58.808Z,100717.60
2023-02-19T21:32:26.926Z,100707.00
2023-02-19T21:34:55.813Z,100698.80
2023-02-19T21:37:27.478Z,100688.00
2023-02-19T21:39:58.704Z,100674.60
2023-02-19T21:42:28.911Z,100664.80
2023-02-19T21:44:58.028Z,100657.00
2023-02-19T21:47:27.805Z,100648.40
2023-02-19T21:49:58.266Z,100635.40
2023-02-19T21:52:27.016Z,100611.40
2023-02-19T21:54:56.281Z,100599.20
2023-02-19T21:57:24.644Z,100605.40
2023-02-19T21:59:56.005Z,100590.20
2023-02-19T22:02:26.204Z,100573.00
2023-02-19T22:04:55.421Z,100579.40
2023-02-19T22:07:24.825Z,100592.00
2023-02-19T22:10:02.906Z,100589.40
2023-02-19T22:12:34.421Z,100571.00
2023-02-19T22:15:05.344Z,100571.40
2023-02-19T22:17:33.743Z,100555.40
2023-02-19T22:20:06.012Z,100544.80
2023-02-19T22:22:41.984Z,100544.60
2023-02-19T22:25:11.023Z,100540.60
2023-02-19T22:27:38.930Z,100530.20
2023-02-19T22:30:07.858Z,100521.80
2023-02-19T22:32:35.730Z,100514.40
2023-02-19T22:35:04.359Z,100511.80
2023-02-19T22:37:36.171Z,100495.60
2023-02-19T22:40:06.078Z,100483.20
2023-02-19T22:42:35.958Z,100472.40
2023-02-19T22:45:06.637Z,100473.00
2023-02-19T22:47:43.805Z,100470.00
2023-02-19T22:50:23.029Z,100467.20
2023-02-19T22:52:54.742Z,100449.20
2023-02-19T22:55:24.727Z,100439.00
2023-02-19T22:57:52.783Z,100427.80
2023-02-19T23:00:21.867Z,100413.20
2023-02-19T23:02:51.775Z,100396.60
2023-02-19T23:05:20.502Z,100392.00
2023-02-19T23:07:48.588Z,100380.00
2023-02-19T23:10:17.028Z,100370.40
2023-02-19T23:12:46.241Z,100360.00
2023-02-19T23:15:16.428Z,100350.20
2023-02-19T23:17:46.643Z,100334.80
2023-02-19T23:20:14.860Z,100328.20
2023-02-19T23:22:46.100Z,100317.20
2023-02-19T23:25:15.592Z,100303.60
2023-02-19T23:27:43.582Z,100292.40
2023-02-19T23:30:13.953Z,100279.80
2023-02-19T23:32:42.326Z,100264.20
2023-02-19T23:35:11.706Z,100255.40
2023-02-19T23:37:40.041Z,100249.60
2023-02-19T23:40:10.646Z,100244.60
2023-02-19T23:42:47.841Z,100247.60
2023-02-19T23:45:17.460Z,100233.40
2023-02-19T23:47:46.629Z,100229.40
2023-02-19T23:50:17.056Z,100222.00
2023-02-19T23:52:44.766Z,100207.20
2023-02-19T23:55:13.969Z,100195.40
2023-02-19T23:57:43.257Z,100178.00
